Time;durP1;ratioP1;P1;durP2;ratioP2;P2;SDS_P1;SDS_P2;PMS_P1;PMS_P2;Temp;Humidity;BMP_temperature;BMP_pressure;BME280_temperature;BME280_humidity;BME280_pressure;Samples;Min_cycle;Max_cycle;Signal;HPM_P1;HPM_P2
2023/04/12 02:05:23;;;;;;;1999.90;999.90;;;;;;;;;;6211003;22;20218;-71
2023/04/12 02:08:08;;;;;;;1999.90;999.90;;;;;;;;;;6213853;23;20185;-72
2023/04/12 02:10:53;;;;;;;1999.90;999.90;;;;;;;;;;6214970;23;20184;-72
2023/04/12 02:13:38;;;;;;;1999.90;999.90;;;;;;;;;;6214795;23;20190;-71
2023/04/12 02:16:23;;;;;;;1999.90;999.90;;;;;;;;;;6184052;23;20166;-72
2023/04/12 02:19:09;;;;;;;1999.90;999.90;;;;;;;;;;6184408;23;20558;-71
2023/04/12 02:21:56;;;;;;;1999.90;999.90;;;;;;;;;;6182243;23;20377;-70
2023/04/12 02:24:41;;;;;;;1999.90;999.90;;;;;;;;;;6184363;23;20286;-73
2023/04/12 02:27:27;;;;;;;1999.90;999.90;;;;;;;;;;6184617;23;20167;-72
2023/04/12 02:30:12;;;;;;;1999.90;999.90;;;;;;;;;;6184491;23;20633;-72
2023/04/12 02:32:57;;;;;;;1999.90;999.90;;;;;;;;;;6184305;23;20190;-72
2023/04/12 02:35:42;;;;;;;1999.90;999.90;;;;;;;;;;6183862;23;20453;-71
2023/04/12 02:38:29;;;;;;;1999.90;999.90;;;;;;;;;;6184514;23;20222;-71
2023/04/12 02:41:16;;;;;;;1999.90;999.90;;;;;;;;;;6184581;23;20162;-72
2023/04/12 02:44:02;;;;;;;1999.90;999.90;;;;;;;;;;6184096;23;20166;-72
2023/04/12 02:46:47;;;;;;;1999.90;999.90;;;;;;;;;;6184442;23;20170;-72
2023/04/12 02:49:32;;;;;;;1999.90;999.90;;;;;;;;;;6184477;23;20170;-70
2023/04/12 02:52:17;;;;;;;1999.90;999.90;;;;;;;;;;6183444;23;20673;-71
2023/04/12 02:55:03;;;;;;;1999.90;999.90;;;;;;;;;;6184251;23;20614;-72
2023/04/12 02:57:49;;;;;;;1999.90;999.90;;;;;;;;;;6184321;23;20598;-72
2023/04/12 03:00:34;;;;;;;1999.90;999.90;;;;;;;;;;6184345;23;20169;-72
2023/04/12 03:03:20;;;;;;;1999.90;999.90;;;;;;;;;;6184070;23;20162;-72
2023/04/12 03:06:05;;;;;;;1999.90;999.90;;;;;;;;;;6183824;23;20261;-72
2023/04/12 03:08:50;;;;;;;1999.90;999.90;;;;;;;;;;6184147;23;20186;-71
2023/04/12 03:11:36;;;;;;;1999.90;999.90;;;;;;;;;;6182788;23;20601;-72
2023/04/12 03:14:21;;;;;;;1999.90;999.90;;;;;;;;;;6183437;23;20327;-72
2023/04/12 03:17:06;;;;;;;1999.90;999.90;;;;;;;;;;6183304;23;20170;-72
2023/04/12 03:19:51;;;;;;;1999.90;999.90;;;;;;;;;;6183024;23;20249;-73
2023/04/12 03:22:36;;;;;;;1999.90;999.90;;;;;;;;;;6182755;23;20711;-73
2023/04/12 03:25:21;;;;;;;1999.90;999.90;;;;;;;;;;6182905;23;20264;-72
2023/04/12 03:28:08;;;;;;;1999.90;999.90;;;;;;;;;;6183090;23;20170;-73
2023/04/12 03:30:53;;;;;;;1999.90;999.90;;;;;;;;;;6183166;23;20218;-72
2023/04/12 03:33:37;;;;;;;1999.90;999.90;;;;;;;;;;6182824;23;20657;-73
2023/04/12 03:36:23;;;;;;;1999.90;999.90;;;;;;;;;;6183564;23;20171;-73
2023/04/12 03:39:07;;;;;;;1999.90;999.90;;;;;;;;;;6182895;23;20217;-72
2023/04/12 03:41:52;;;;;;;1999.90;999.90;;;;;;;;;;6183094;23;20622;-72
2023/04/12 03:44:39;;;;;;;1999.90;999.90;;;;;;;;;;6183303;23;20718;-72
2023/04/12 03:47:24;;;;;;;1999.90;999.90;;;;;;;;;;6183592;23;20170;-72
2023/04/12 03:50:10;;;;;;;1999.90;999.90;;;;;;;;;;6183163;23;20193;-72
2023/04/12 03:52:55;;;;;;;1999.90;999.90;;;;;;;;;;6182525;23;20189;-72
2023/04/12 03:55:40;;;;;;;1999.90;999.90;;;;;;;;;;6183219;23;20123;-72
2023/04/12 03:58:25;;;;;;;1999.90;999.90;;;;;;;;;;6182681;23;20170;-72
2023/04/12 04:01:14;;;;;;;1999.90;999.90;;;;;;;;;;6183016;23;20270;-72
2023/04/12 04:03:59;;;;;;;1999.90;999.90;;;;;;;;;;6182254;23;20209;-73
2023/04/12 04:06:45;;;;;;;1999.90;999.90;;;;;;;;;;6183288;23;20257;-72
2023/04/12 04:09:30;;;;;;;1999.90;999.90;;;;;;;;;;6182448;23;20182;-72
2023/04/12 04:12:15;;;;;;;1999.90;999.90;;;;;;;;;;6180743;23;20400;-73
2023/04/12 04:15:00;;;;;;;1999.90;999.90;;;;;;;;;;6183140;23;20205;-72
2023/04/12 04:17:48;;;;;;;1999.90;999.90;;;;;;;;;;6183241;23;20166;-72
2023/04/12 04:20:33;;;;;;;1999.90;999.90;;;;;;;;;;6183312;23;20250;-72
2023/04/12 04:23:18;;;;;;;1999.90;999.90;;;;;;;;;;6182016;23;20182;-72
2023/04/12 04:26:04;;;;;;;1999.90;999.90;;;;;;;;;;6183141;23;20260;-72
2023/04/12 04:28:49;;;;;;;1999.90;999.90;;;;;;;;;;6182398;23;20170;-70
2023/04/12 04:31:35;;;;;;;1999.90;999.90;;;;;;;;;;6182724;23;20233;-72
2023/04/12 04:34:22;;;;;;;1999.90;999.90;;;;;;;;;;6182582;23;20278;-73
2023/04/12 04:37:07;;;;;;;1999.90;999.90;;;;;;;;;;6182670;23;20626;-72
2023/04/12 04:39:52;;;;;;;1999.90;999.90;;;;;;;;;;6182933;23;20166;-72
2023/04/12 04:42:38;;;;;;;1999.90;999.90;;;;;;;;;;6182343;23;20852;-72
2023/04/12 04:45:25;;;;;;;1999.90;999.90;;;;;;;;;;6182962;23;20249;-72
2023/04/12 04:48:10;;;;;;;1999.90;999.90;;;;;;;;;;6181600;23;20492;-73
2023/04/12 04:50:56;;;;;;;1999.90;999.90;;;;;;;;;;6182643;23;20226;-70
2023/04/12 04:53:42;;;;;;;1999.90;999.90;;;;;;;;;;6182428;23;20194;-71
2023/04/12 04:56:26;;;;;;;1999.90;999.90;;;;;;;;;;6182531;23;20217;-71
2023/04/12 04:59:11;;;;;;;1999.90;999.90;;;;;;;;;;6182859;23;20262;-72
2023/04/12 05:01:56;;;;;;;1999.90;999.90;;;;;;;;;;6181566;23;20440;-71
2023/04/12 05:04:41;;;;;;;1999.90;999.90;;;;;;;;;;6182716;23;20382;-72
2023/04/12 05:07:27;;;;;;;1999.90;999.90;;;;;;;;;;6182869;23;20170;-71
2023/04/12 05:10:12;;;;;;;1999.90;999.90;;;;;;;;;;6182502;23;20170;-72
2023/04/12 05:12:57;;;;;;;1999.90;999.90;;;;;;;;;;6182273;23;20527;-69
2023/04/12 05:15:42;;;;;;;1999.90;999.90;;;;;;;;;;6182557;23;20757;-72
2023/04/12 05:18:27;;;;;;;1999.90;999.90;;;;;;;;;;6183427;23;20254;-70
2023/04/12 05:21:12;;;;;;;1999.90;999.90;;;;;;;;;;6183176;23;20643;-72
2023/04/12 05:23:58;;;;;;;1999.90;999.90;;;;;;;;;;6183478;23;20170;-72
2023/04/12 05:26:44;;;;;;;1999.90;999.90;;;;;;;;;;6183609;23;20658;-72
2023/04/12 05:29:29;;;;;;;1999.90;999.90;;;;;;;;;;6184643;23;20254;-71
2023/04/12 05:32:14;;;;;;;1999.90;999.90;;;;;;;;;;6184845;23;20169;-72
2023/04/12 05:34:59;;;;;;;1999.90;999.90;;;;;;;;;;6184985;23;20207;-72
2023/04/12 05:37:44;;;;;;;1999.90;999.90;;;;;;;;;;6185250;23;20222;-72
2023/04/12 05:40:31;;;;;;;1999.90;999.90;;;;;;;;;;6184989;23;20643;-72
2023/04/12 05:43:17;;;;;;;1999.90;999.90;;;;;;;;;;6184062;23;20166;-72
2023/04/12 05:46:01;;;;;;;1999.90;999.90;;;;;;;;;;6181456;23;20543;-70
2023/04/12 05:48:46;;;;;;;1999.90;999.90;;;;;;;;;;6182249;23;20166;-70
2023/04/12 05:51:31;;;;;;;1999.90;999.90;;;;;;;;;;6180112;23;20461;-71
2023/04/12 05:54:19;;;;;;;1999.90;999.90;;;;;;;;;;6181580;23;20294;-73
2023/04/12 05:57:06;;;;;;;1999.90;999.90;;;;;;;;;;6181919;23;20580;-70
2023/04/12 05:59:51;;;;;;;1999.90;999.90;;;;;;;;;;6183275;23;20166;-72
2023/04/12 06:02:35;;;;;;;1999.90;999.90;;;;;;;;;;6184573;23;20170;-71
2023/04/12 06:05:21;;;;;;;1999.90;999.90;;;;;;;;;;6182280;23;20257;-73
2023/04/12 06:08:07;;;;;;;1999.90;999.90;;;;;;;;;;6182199;23;20174;-71
2023/04/12 06:10:52;;;;;;;1999.90;999.90;;;;;;;;;;6181764;23;20174;-73
2023/04/12 06:13:39;;;;;;;1999.90;999.90;;;;;;;;;;6181915;23;20195;-71
2023/04/12 06:16:24;;;;;;;1999.90;999.90;;;;;;;;;;6181634;23;20165;-72
2023/04/12 06:19:09;;;;;;;1999.90;999.90;;;;;;;;;;6181975;23;20166;-72
2023/04/12 06:21:54;;;;;;;1999.90;999.90;;;;;;;;;;6182315;23;20166;-73
2023/04/12 06:24:39;;;;;;;1999.90;999.90;;;;;;;;;;6182135;23;20463;-73
2023/04/12 06:27:25;;;;;;;1999.90;999.90;;;;;;;;;;6182622;23;20364;-72
2023/04/12 06:30:12;;;;;;;1999.90;999.90;;;;;;;;;;6182027;23;20315;-73
2023/04/12 06:32:57;;;;;;;1999.90;999.90;;;;;;;;;;6181400;23;20534;-71
2023/04/12 06:35:42;;;;;;;1999.90;999.90;;;;;;;;;;6181275;23;20289;-72
2023/04/12 06:38:27;;;;;;;1999.90;999.90;;;;;;;;;;6181654;23;20327;-72
2023/04/12 06:41:12;;;;;;;1999.90;999.90;;;;;;;;;;6181741;23;20263;-73
2023/04/12 06:43:57;;;;;;;1999.90;999.90;;;;;;;;;;6181617;23;20165;-74
2023/04/12 06:46:43;;;;;;;1999.90;999.90;;;;;;;;;;6181589;23;20508;-71
2023/04/12 06:49:28;;;;;;;1999.90;999.90;;;;;;;;;;6182302;23;20213;-71
2023/04/12 06:52:13;;;;;;;1999.90;999.90;;;;;;;;;;6182204;23;20215;-72
2023/04/12 06:54:58;;;;;;;1999.90;999.90;;;;;;;;;;6182099;23;20314;-71
2023/04/12 06:57:43;;;;;;;1999.90;999.90;;;;;;;;;;6182433;23;20201;-70
2023/04/12 07:00:28;;;;;;;1999.90;999.90;;;;;;;;;;6182426;23;20518;-72
2023/04/12 07:03:15;;;;;;;1999.90;999.90;;;;;;;;;;6181991;23;20163;-71
2023/04/12 07:06:01;;;;;;;1999.90;999.90;;;;;;;;;;6181943;23;20269;-71
2023/04/12 07:08:47;;;;;;;1999.90;999.90;;;;;;;;;;6182214;23;20235;-71
2023/04/12 07:11:31;;;;;;;1999.90;999.90;;;;;;;;;;6182411;23;20552;-71
2023/04/12 07:14:16;;;;;;;1999.90;999.90;;;;;;;;;;6181418;23;20210;-71
2023/04/12 07:17:01;;;;;;;1999.90;999.90;;;;;;;;;;6182538;23;20285;-71
2023/04/12 07:19:49;;;;;;;1999.90;999.90;;;;;;;;;;6182006;23;20174;-71
2023/04/12 07:22:34;;;;;;;1999.90;999.90;;;;;;;;;;6181844;23;20174;-71
2023/04/12 07:25:19;;;;;;;1999.90;999.90;;;;;;;;;;6181009;23;20392;-71
2023/04/12 07:28:04;;;;;;;1999.90;999.90;;;;;;;;;;6182339;23;20167;-71
2023/04/12 07:30:49;;;;;;;1999.90;999.90;;;;;;;;;;6181774;23;20174;-72
2023/04/12 07:33:36;;;;;;;1999.90;999.90;;;;;;;;;;6181845;23;20289;-71
2023/04/12 07:36:22;;;;;;;1999.90;999.90;;;;;;;;;;6181873;23;20166;-71
2023/04/12 07:39:10;;;;;;;1999.90;999.90;;;;;;;;;;6181781;23;20166;-71
2023/04/12 07:41:55;;;;;;;1999.90;999.90;;;;;;;;;;6181553;23;20166;-71
2023/04/12 07:44:41;;;;;;;1999.90;999.90;;;;;;;;;;6181365;23;20201;-71
2023/04/12 07:47:26;;;;;;;1999.90;999.90;;;;;;;;;;6181351;23;20507;-71
2023/04/12 07:50:11;;;;;;;1999.90;999.90;;;;;;;;;;6181817;23;20175;-71
2023/04/12 07:52:58;;;;;;;1999.90;999.90;;;;;;;;;;6181516;23;20167;-70
2023/04/12 07:55:44;;;;;;;1999.90;999.90;;;;;;;;;;6181540;23;20207;-71
2023/04/12 07:58:29;;;;;;;1999.90;999.90;;;;;;;;;;6181563;23;20755;-71
2023/04/12 08:01:15;;;;;;;1999.90;999.90;;;;;;;;;;6182067;23;20183;-71
2023/04/12 08:04:01;;;;;;;1999.90;999.90;;;;;;;;;;6180785;23;20607;-70
2023/04/12 08:06:47;;;;;;;1999.90;999.90;;;;;;;;;;6181420;23;20173;-72
2023/04/12 08:09:31;;;;;;;1999.90;999.90;;;;;;;;;;6179919;23;20166;-73
2023/04/12 08:12:19;;;;;;;1999.90;999.90;;;;;;;;;;6180960;23;20429;-70
2023/04/12 08:15:04;;;;;;;1999.90;999.90;;;;;;;;;;6181537;23;20722;-73
2023/04/12 08:17:50;;;;;;;1999.90;999.90;;;;;;;;;;6181213;23;20617;-72
2023/04/12 08:20:35;;;;;;;1999.90;999.90;;;;;;;;;;6181699;23;20171;-73
2023/04/12 08:23:20;;;;;;;1999.90;999.90;;;;;;;;;;6179798;23;20173;-72
2023/04/12 08:26:05;;;;;;;1999.90;999.90;;;;;;;;;;6181968;23;20264;-71
2023/04/12 08:28:52;;;;;;;1999.90;999.90;;;;;;;;;;6180890;23;20175;-73
2023/04/12 08:31:37;;;;;;;1999.90;999.90;;;;;;;;;;6181280;23;20169;-72
2023/04/12 08:34:23;;;;;;;1999.90;999.90;;;;;;;;;;6181000;23;20730;-72
2023/04/12 08:37:08;;;;;;;1999.90;999.90;;;;;;;;;;6181028;23;20173;-71
2023/04/12 08:39:53;;;;;;;1999.90;999.90;;;;;;;;;;6180695;23;20173;-73
2023/04/12 08:42:38;;;;;;;1999.90;999.90;;;;;;;;;;6180522;23;20177;-72
2023/04/12 08:45:25;;;;;;;1999.90;999.90;;;;;;;;;;6181274;23;20201;-71
2023/04/12 08:48:11;;;;;;;1999.90;999.90;;;;;;;;;;6179192;23;20401;-71
2023/04/12 08:50:56;;;;;;;1999.90;999.90;;;;;;;;;;6181661;23;20166;-72
2023/04/12 08:53:41;;;;;;;1999.90;999.90;;;;;;;;;;6180870;23;20753;-71
2023/04/12 08:56:27;;;;;;;1999.90;999.90;;;;;;;;;;6180702;23;20268;-70
2023/04/12 08:59:12;;;;;;;1999.90;999.90;;;;;;;;;;6180964;23;20216;-72
2023/04/12 09:01:59;;;;;;;1999.90;999.90;;;;;;;;;;6179891;23;20173;-71
2023/04/12 09:04:48;;;;;;;1999.90;999.90;;;;;;;;;;6183579;23;20217;-73
2023/04/12 09:07:33;;;;;;;1999.90;999.90;;;;;;;;;;6183205;23;20193;-72
2023/04/12 09:10:31;;;;;;;1999.90;999.90;;;;;;;;;;6183526;23;20621;-71
2023/04/12 09:13:16;;;;;;;1999.90;999.90;;;;;;;;;;6182134;23;20245;-72
2023/04/12 09:16:01;;;;;;;1999.90;999.90;;;;;;;;;;6183541;23;20202;-73
2023/04/12 09:18:50;;;;;;;1999.90;999.90;;;;;;;;;;6183316;23;20170;-72
2023/04/12 09:21:35;;;;;;;1999.90;999.90;;;;;;;;;;6182929;23;20739;-73
2023/04/12 09:24:23;;;;;;;1999.90;999.90;;;;;;;;;;6182208;23;20198;-72
2023/04/12 09:27:08;;;;;;;1999.90;999.90;;;;;;;;;;6183298;23;20171;-72
2023/04/12 09:30:06;;;;;;;1999.90;999.90;;;;;;;;;;6183197;23;20170;-73
2023/04/12 09:32:52;;;;;;;1999.90;999.90;;;;;;;;;;6183109;23;20174;-71
2023/04/12 09:35:38;;;;;;;1999.90;999.90;;;;;;;;;;6181536;23;20401;-70
2023/04/12 09:38:24;;;;;;;1999.90;999.90;;;;;;;;;;6183225;23;20274;-72
2023/04/12 09:41:15;;;;;;;1999.90;999.90;;;;;;;;;;6182046;23;20246;-72
2023/04/12 09:44:01;;;;;;;1999.90;999.90;;;;;;;;;;6183068;23;20166;-72
2023/04/12 09:46:50;;;;;;;1999.90;999.90;;;;;;;;;;6183257;23;20173;-72
2023/04/12 09:49:39;;;;;;;1999.90;999.90;;;;;;;;;;6182364;23;20366;-71
2023/04/12 09:52:35;;;;;;;1999.90;999.90;;;;;;;;;;6183287;23;20680;-72
2023/04/12 09:55:21;;;;;;;1999.90;999.90;;;;;;;;;;6183283;23;20229;-71
2023/04/12 09:58:06;;;;;;;1999.90;999.90;;;;;;;;;;6182924;23;20174;-72
2023/04/12 10:00:51;;;;;;;1999.90;999.90;;;;;;;;;;6183999;23;20217;-74
2023/04/12 10:03:37;;;;;;;1999.90;999.90;;;;;;;;;;6185094;23;20217;-71
2023/04/12 10:06:22;;;;;;;1999.90;999.90;;;;;;;;;;6183227;23;20268;-74
2023/04/12 10:09:09;;;;;;;1999.90;999.90;;;;;;;;;;6184691;23;20169;-75
2023/04/12 10:11:54;;;;;;;1999.90;999.90;;;;;;;;;;6183954;23;20170;-74
2023/04/12 10:14:41;;;;;;;1999.90;999.90;;;;;;;;;;6184587;23;20296;-72
2023/04/12 10:17:26;;;;;;;1999.90;999.90;;;;;;;;;;6185000;23;20241;-72
2023/04/12 10:20:12;;;;;;;1999.90;999.90;;;;;;;;;;6183720;23;20663;-72
2023/04/12 10:22:58;;;;;;;1999.90;999.90;;;;;;;;;;6184771;23;20673;-71
2023/04/12 10:25:45;;;;;;;1999.90;999.90;;;;;;;;;;6185014;23;20276;-73
2023/04/12 10:28:30;;;;;;;1999.90;999.90;;;;;;;;;;6184316;23;20182;-73
2023/04/12 10:31:27;;;;;;;1999.90;999.90;;;;;;;;;;6184568;23;20249;-73
2023/04/12 10:34:12;;;;;;;1999.90;999.90;;;;;;;;;;6184477;23;20217;-73
2023/04/12 10:36:58;;;;;;;1999.90;999.90;;;;;;;;;;6183472;23;20916;-73
2023/04/12 10:39:46;;;;;;;1999.90;999.90;;;;;;;;;;6184105;23;20174;-73
2023/04/12 10:42:32;;;;;;;1999.90;999.90;;;;;;;;;;6184105;23;20691;-74
2023/04/12 10:45:36;;;;;;;1999.90;999.90;;;;;;;;;;6184326;23;20201;-72
2023/04/12 10:48:34;;;;;;;1999.90;999.90;;;;;;;;;;6184530;23;20659;-71
2023/04/12 10:51:24;;;;;;;1999.90;999.90;;;;;;;;;;6184688;23;20639;-72
2023/04/12 10:54:27;;;;;;;1999.90;999.90;;;;;;;;;;6184127;23;20677;-73
2023/04/12 10:57:30;;;;;;;1999.90;999.90;;;;;;;;;;6180372;23;20647;-73
2023/04/12 11:00:17;;;;;;;1999.90;999.90;;;;;;;;;;6184682;23;20170;-73
2023/04/12 11:03:04;;;;;;;1999.90;999.90;;;;;;;;;;6184894;23;20566;-73
2023/04/12 11:05:59;;;;;;;1999.90;999.90;;;;;;;;;;6184564;23;20292;-72
2023/04/12 11:08:46;;;;;;;1999.90;999.90;;;;;;;;;;6184223;23;20630;-73
2023/04/12 11:11:33;;;;;;;1999.90;999.90;;;;;;;;;;6183731;23;20631;-72
2023/04/12 11:14:23;;;;;;;1999.90;999.90;;;;;;;;;;6183710;23;20249;-72
2023/04/12 11:17:23;;;;;;;1999.90;999.90;;;;;;;;;;6184646;23;20298;-75
2023/04/12 11:20:10;;;;;;;1999.90;999.90;;;;;;;;;;6183810;23;20170;-73
2023/04/12 11:22:55;;;;;;;1999.90;999.90;;;;;;;;;;6183749;23;20417;-75
2023/04/12 11:25:40;;;;;;;1999.90;999.90;;;;;;;;;;6182999;23;20197;-72
2023/04/12 11:28:25;;;;;;;1999.90;999.90;;;;;;;;;;6183395;23;20170;-72
2023/04/12 11:31:11;;;;;;;1999.90;999.90;;;;;;;;;;6184137;23;20174;-74
2023/04/12 11:33:59;;;;;;;1999.90;999.90;;;;;;;;;;6182840;23;20221;-72
2023/04/12 11:36:45;;;;;;;1999.90;999.90;;;;;;;;;;6183734;23;20206;-74
2023/04/12 11:39:30;;;;;;;1999.90;999.90;;;;;;;;;;6184179;23;20171;-70
2023/04/12 11:42:15;;;;;;;1999.90;999.90;;;;;;;;;;6182413;23;20166;-74
2023/04/12 11:45:00;;;;;;;1999.90;999.90;;;;;;;;;;6184074;23;20249;-75
2023/04/12 11:47:46;;;;;;;1999.90;999.90;;;;;;;;;;6183829;23;20199;-74
2023/04/12 11:50:32;;;;;;;1999.90;999.90;;;;;;;;;;6183274;23;20255;-74
2023/04/12 11:53:18;;;;;;;1999.90;999.90;;;;;;;;;;6182921;23;20249;-74
2023/04/12 11:56:03;;;;;;;1999.90;999.90;;;;;;;;;;6183032;23;20486;-73
2023/04/12 11:58:48;;;;;;;1999.90;999.90;;;;;;;;;;6184201;23;20298;-74
2023/04/12 12:01:34;;;;;;;1999.90;999.90;;;;;;;;;;6183769;23;20246;-74
2023/04/12 12:04:19;;;;;;;1999.90;999.90;;;;;;;;;;6183551;23;20297;-75
2023/04/12 12:07:06;;;;;;;1999.90;999.90;;;;;;;;;;6183626;23;20501;-71
2023/04/12 12:09:51;;;;;;;1999.90;999.90;;;;;;;;;;6181788;23;20845;-71
2023/04/12 12:12:36;;;;;;;1999.90;999.90;;;;;;;;;;6180490;23;20463;-72
2023/04/12 12:15:21;;;;;;;1999.90;999.90;;;;;;;;;;6183269;23;20205;-71
2023/04/12 12:18:07;;;;;;;1999.90;999.90;;;;;;;;;;6183883;23;20170;-71
2023/04/12 12:20:54;;;;;;;1999.90;999.90;;;;;;;;;;6183991;23;20169;-71
2023/04/12 12:23:42;;;;;;;1999.90;999.90;;;;;;;;;;6183805;23;20165;-72
2023/04/12 12:26:27;;;;;;;1999.90;999.90;;;;;;;;;;6183954;23;20241;-72
2023/04/12 12:29:17;;;;;;;1999.90;999.90;;;;;;;;;;6183763;23;20502;-71
2023/04/12 12:32:02;;;;;;;1999.90;999.90;;;;;;;;;;6183719;23;20170;-70
2023/04/12 12:34:51;;;;;;;1999.90;999.90;;;;;;;;;;6183676;23;20249;-73
2023/04/12 12:37:35;;;;;;;1999.90;999.90;;;;;;;;;;6183860;23;20240;-71
2023/04/12 12:40:29;;;;;;;1999.90;999.90;;;;;;;;;;6183813;23;20517;-71
2023/04/12 12:43:18;;;;;;;1999.90;999.90;;;;;;;;;;6183567;23;20371;-71
2023/04/12 12:46:03;;;;;;;1999.90;999.90;;;;;;;;;;6183755;23;20201;-71
2023/04/12 12:48:48;;;;;;;1999.90;999.90;;;;;;;;;;6183747;23;20170;-72
2023/04/12 12:51:33;;;;;;;1999.90;999.90;;;;;;;;;;6183826;23;20516;-72
2023/04/12 12:54:18;;;;;;;1999.90;999.90;;;;;;;;;;6183439;23;20209;-72
2023/04/12 12:57:04;;;;;;;1999.90;999.90;;;;;;;;;;6183814;23;20209;-72
2023/04/12 12:59:50;;;;;;;1999.90;999.90;;;;;;;;;;6182385;23;20370;-71
2023/04/12 13:02:34;;;;;;;1999.90;999.90;;;;;;;;;;6183507;23;20241;-71
2023/04/12 13:05:20;;;;;;;1999.90;999.90;;;;;;;;;;6183528;23;20210;-72
2023/04/12 13:08:05;;;;;;;1999.90;999.90;;;;;;;;;;6183686;23;20170;-71
2023/04/12 13:10:50;;;;;;;1999.90;999.90;;;;;;;;;;6184056;23;20210;-72
2023/04/12 13:13:37;;;;;;;1999.90;999.90;;;;;;;;;;6183491;23;20504;-71
2023/04/12 13:16:21;;;;;;;1999.90;999.90;;;;;;;;;;6183604;23;20662;-72
2023/04/12 13:19:06;;;;;;;1999.90;999.90;;;;;;;;;;6183571;23;20169;-72
2023/04/12 13:21:51;;;;;;;1999.90;999.90;;;;;;;;;;6183718;23;20166;-71
2023/04/12 13:24:36;;;;;;;1999.90;999.90;;;;;;;;;;6183648;23;20226;-71
2023/04/12 13:27:21;;;;;;;1999.90;999.90;;;;;;;;;;6183632;23;20170;-72
2023/04/12 13:30:08;;;;;;;1999.90;999.90;;;;;;;;;;6183551;23;20187;-72
2023/04/12 13:32:53;;;;;;;1999.90;999.90;;;;;;;;;;6182369;23;20455;-72
2023/04/12 13:35:38;;;;;;;1999.90;999.90;;;;;;;;;;6183414;23;20222;-72
2023/04/12 13:38:23;;;;;;;1999.90;999.90;;;;;;;;;;6183568;23;20174;-72
2023/04/12 13:41:08;;;;;;;1999.90;999.90;;;;;;;;;;6183681;23;20196;-72
2023/04/12 13:43:53;;;;;;;1999.90;999.90;;;;;;;;;;6183261;23;20233;-72
2023/04/12 13:46:40;;;;;;;1999.90;999.90;;;;;;;;;;6183462;23;20352;-71
2023/04/12 13:49:25;;;;;;;1999.90;999.90;;;;;;;;;;6184535;23;20214;-72
2023/04/12 13:52:10;;;;;;;1999.90;999.90;;;;;;;;;;6185210;23;20170;-72
2023/04/12 13:54:55;;;;;;;1999.90;999.90;;;;;;;;;;6185164;23;20205;-72
2023/04/12 13:57:40;;;;;;;1999.90;999.90;;;;;;;;;;6185357;23;20215;-71
2023/04/12 14:00:25;;;;;;;1999.90;999.90;;;;;;;;;;6185168;23;20169;-72
2023/04/12 14:03:12;;;;;;;1999.90;999.90;;;;;;;;;;6185525;23;20670;-71
2023/04/12 14:05:57;;;;;;;1999.90;999.90;;;;;;;;;;6185060;23;20206;-72
2023/04/12 14:08:41;;;;;;;1999.90;999.90;;;;;;;;;;6185163;23;20210;-73
2023/04/12 14:11:26;;;;;;;1999.90;999.90;;;;;;;;;;6184183;23;20631;-71
2023/04/12 14:14:11;;;;;;;1999.90;999.90;;;;;;;;;;6183492;23;20571;-72
2023/04/12 14:16:57;;;;;;;1999.90;999.90;;;;;;;;;;6183800;23;20194;-72
2023/04/12 14:19:44;;;;;;;1999.90;999.90;;;;;;;;;;6181421;23;20420;-74
2023/04/12 14:22:29;;;;;;;1999.90;999.90;;;;;;;;;;6182599;23;20209;-72
2023/04/12 14:25:14;;;;;;;1999.90;999.90;;;;;;;;;;6182953;23;20543;-72
2023/04/12 14:27:58;;;;;;;1999.90;999.90;;;;;;;;;;6183012;23;20215;-74
2023/04/12 14:30:44;;;;;;;1999.90;999.90;;;;;;;;;;6183168;23;20524;-74
2023/04/12 14:33:29;;;;;;;1999.90;999.90;;;;;;;;;;6182996;23;20241;-73
2023/04/12 14:36:15;;;;;;;1999.90;999.90;;;;;;;;;;6181067;23;20408;-72
2023/04/12 14:39:02;;;;;;;1999.90;999.90;;;;;;;;;;6182565;23;20170;-73
2023/04/12 14:41:47;;;;;;;1999.90;999.90;;;;;;;;;;6183056;23;20166;-74
2023/04/12 14:44:32;;;;;;;1999.90;999.90;;;;;;;;;;6182254;23;20278;-73
2023/04/12 14:47:17;;;;;;;1999.90;999.90;;;;;;;;;;6182342;23;20229;-71
2023/04/12 14:50:02;;;;;;;1999.90;999.90;;;;;;;;;;6182649;23;20166;-71
2023/04/12 14:52:49;;;;;;;1999.90;999.90;;;;;;;;;;6182451;23;20818;-72
2023/04/12 14:55:34;;;;;;;1999.90;999.90;;;;;;;;;;6181824;23;20706;-72
2023/04/12 14:58:19;;;;;;;1999.90;999.90;;;;;;;;;;6182003;23;20552;-73
2023/04/12 15:01:04;;;;;;;1999.90;999.90;;;;;;;;;;6181895;23;20181;-72
2023/04/12 15:03:50;;;;;;;1999.90;999.90;;;;;;;;;;6182402;23;20170;-72
2023/04/12 15:06:41;;;;;;;1999.90;999.90;;;;;;;;;;6181271;23;20166;-72
2023/04/12 15:09:27;;;;;;;1999.90;999.90;;;;;;;;;;6181372;23;20177;-72
2023/04/12 15:12:12;;;;;;;1999.90;999.90;;;;;;;;;;6182094;23;20169;-71
2023/04/12 15:14:57;;;;;;;1999.90;999.90;;;;;;;;;;6181895;23;20255;-72
2023/04/12 15:17:42;;;;;;;1999.90;999.90;;;;;;;;;;6182027;23;20170;-72
2023/04/12 15:20:27;;;;;;;1999.90;999.90;;;;;;;;;;6182224;23;20636;-72
2023/04/12 15:23:12;;;;;;;1999.90;999.90;;;;;;;;;;6180908;23;20722;-72
2023/04/12 15:26:00;;;;;;;1999.90;999.90;;;;;;;;;;6182164;23;20207;-72
2023/04/12 15:28:46;;;;;;;1999.90;999.90;;;;;;;;;;6181017;23;20534;-73
2023/04/12 15:31:31;;;;;;;1999.90;999.90;;;;;;;;;;6182098;23;20177;-72
2023/04/12 15:34:16;;;;;;;1999.90;999.90;;;;;;;;;;6181254;23;20680;-72
2023/04/12 15:37:01;;;;;;;1999.90;999.90;;;;;;;;;;6182459;23;20317;-72
2023/04/12 15:39:46;;;;;;;1999.90;999.90;;;;;;;;;;6183083;23;20172;-73
2023/04/12 15:42:32;;;;;;;1999.90;999.90;;;;;;;;;;6181748;23;20169;-73
2023/04/12 15:45:17;;;;;;;1999.90;999.90;;;;;;;;;;6180795;23;20688;-72
2023/04/12 15:48:02;;;;;;;1999.90;999.90;;;;;;;;;;6182031;23;20168;-73
2023/04/12 15:50:47;;;;;;;1999.90;999.90;;;;;;;;;;6185415;23;20647;-72
2023/04/12 15:53:32;;;;;;;1999.90;999.90;;;;;;;;;;6184899;23;20173;-69
2023/04/12 15:56:22;;;;;;;1999.90;999.90;;;;;;;;;;6185255;23;20195;-72
2023/04/12 15:59:10;;;;;;;1999.90;999.90;;;;;;;;;;6181852;23;25069;-72
2023/04/12 16:01:54;;;;;;;1999.90;999.90;;;;;;;;;;6182257;23;20196;-72
2023/04/12 16:04:42;;;;;;;1999.90;999.90;;;;;;;;;;6181831;23;20266;-72
2023/04/12 16:07:28;;;;;;;1999.90;999.90;;;;;;;;;;6182039;23;20266;-72
2023/04/12 16:10:13;;;;;;;1999.90;999.90;;;;;;;;;;6181456;23;20170;-72
2023/04/12 16:12:58;;;;;;;1999.90;999.90;;;;;;;;;;6180949;23;20465;-71
2023/04/12 16:15:45;;;;;;;1999.90;999.90;;;;;;;;;;6181021;23;20386;-69
2023/04/12 16:18:30;;;;;;;1999.90;999.90;;;;;;;;;;6181733;23;20562;-72
2023/04/12 16:21:18;;;;;;;1999.90;999.90;;;;;;;;;;6181648;23;20168;-71
2023/04/12 16:24:03;;;;;;;1999.90;999.90;;;;;;;;;;6181358;23;20645;-70
2023/04/12 16:26:48;;;;;;;1999.90;999.90;;;;;;;;;;6181332;23;20173;-72
2023/04/12 16:29:33;;;;;;;1999.90;999.90;;;;;;;;;;6181801;23;20653;-71
2023/04/12 16:32:20;;;;;;;1999.90;999.90;;;;;;;;;;6181835;23;20549;-73
2023/04/12 16:35:05;;;;;;;1999.90;999.90;;;;;;;;;;6181310;23;20256;-71
2023/04/12 16:37:51;;;;;;;1999.90;999.90;;;;;;;;;;6181824;23;20169;-70
2023/04/12 16:40:36;;;;;;;1999.90;999.90;;;;;;;;;;6181066;23;20928;-71
2023/04/12 16:43:21;;;;;;;1999.90;999.90;;;;;;;;;;6181283;23;20185;-70
2023/04/12 16:46:07;;;;;;;1999.90;999.90;;;;;;;;;;6181230;23;20375;-71
2023/04/12 16:48:53;;;;;;;1999.90;999.90;;;;;;;;;;6181461;23;20495;-71
2023/04/12 16:51:38;;;;;;;1999.90;999.90;;;;;;;;;;6181741;23;20172;-71
2023/04/12 16:54:24;;;;;;;1999.90;999.90;;;;;;;;;;6180905;23;20209;-70
2023/04/12 16:57:10;;;;;;;1999.90;999.90;;;;;;;;;;6181371;23;20325;-71
2023/04/12 16:59:56;;;;;;;1999.90;999.90;;;;;;;;;;6181361;23;20220;-70
2023/04/12 17:02:41;;;;;;;1999.90;999.90;;;;;;;;;;6180789;23;20711;-71
2023/04/12 17:05:27;;;;;;;1999.90;999.90;;;;;;;;;;6181063;23;20497;-72
2023/04/12 17:08:14;;;;;;;1999.90;999.90;;;;;;;;;;6181502;23;20212;-70
2023/04/12 17:10:59;;;;;;;1999.90;999.90;;;;;;;;;;6181282;23;20173;-70
2023/04/12 17:13:45;;;;;;;1999.90;999.90;;;;;;;;;;6181191;23;20515;-72
2023/04/12 17:16:30;;;;;;;1999.90;999.90;;;;;;;;;;6181272;23;20260;-70
2023/04/12 17:19:15;;;;;;;1999.90;999.90;;;;;;;;;;6181388;23;20169;-72
2023/04/12 17:22:01;;;;;;;1999.90;999.90;;;;;;;;;;6181284;23;20276;-71
2023/04/12 17:24:46;;;;;;;1999.90;999.90;;;;;;;;;;6182544;23;20204;-71
2023/04/12 17:27:33;;;;;;;1999.90;999.90;;;;;;;;;;6183135;23;20633;-70
2023/04/12 17:30:18;;;;;;;1999.90;999.90;;;;;;;;;;6183442;23;20214;-70